sensor_id;sensor_type;location;lat;lon;timestamp;temperature;humidity
7411;DHT22;3747;48.628;9.058;2022-10-13T00:02:12;9.80;99.90
7411;DHT22;3747;48.628;9.058;2022-10-13T00:04:39;9.70;99.90
7411;DHT22;3747;48.628;9.058;2022-10-13T00:07:06;9.80;99.90
7411;DHT22;3747;48.628;9.058;2022-10-13T00:09:33;9.80;99.90
7411;DHT22;3747;48.628;9.058;2022-10-13T00:11:59;9.90;99.90
7411;DHT22;3747;48.628;9.058;2022-10-13T00:14:26;10.00;99.90
7411;DHT22;3747;48.628;9.058;2022-10-13T00:16:54;10.10;99.90
7411;DHT22;3747;48.628;9.058;2022-10-13T00:19:21;10.20;99.90
7411;DHT22;3747;48.628;9.058;2022-10-13T00:21:47;10.20;99.90
7411;DHT22;3747;48.628;9.058;2022-10-13T00:24:14;10.30;99.90
7411;DHT22;3747;48.628;9.058;2022-10-13T00:26:41;10.30;99.90
7411;DHT22;3747;48.628;9.058;2022-10-13T00:29:07;10.40;99.90
7411;DHT22;3747;48.628;9.058;2022-10-13T00:31:34;10.50;99.90
7411;DHT22;3747;48.628;9.058;2022-10-13T00:34:02;10.50;99.90
7411;DHT22;3747;48.628;9.058;2022-10-13T00:36:29;10.50;99.90
7411;DHT22;3747;48.628;9.058;2022-10-13T00:38:57;10.60;99.90
7411;DHT22;3747;48.628;9.058;2022-10-13T00:41:24;10.60;99.90
7411;DHT22;3747;48.628;9.058;2022-10-13T00:43:56;10.60;99.90
7411;DHT22;3747;48.628;9.058;2022-10-13T00:46:26;10.60;99.90
7411;DHT22;3747;48.628;9.058;2022-10-13T00:48:53;10.70;99.90
7411;DHT22;3747;48.628;9.058;2022-10-13T00:51:25;10.60;99.90
7411;DHT22;3747;48.628;9.058;2022-10-13T00:53:53;10.60;99.90
7411;DHT22;3747;48.628;9.058;2022-10-13T00:56:21;10.50;99.90
7411;DHT22;3747;48.628;9.058;2022-10-13T00:58:49;10.40;99.90
7411;DHT22;3747;48.628;9.058;2022-10-13T01:01:17;10.30;99.90
7411;DHT22;3747;48.628;9.058;2022-10-13T01:03:43;10.20;99.90
7411;DHT22;3747;48.628;9.058;2022-10-13T01:06:11;10.10;99.90
7411;DHT22;3747;48.628;9.058;2022-10-13T01:08:40;10.00;99.90
7411;DHT22;3747;48.628;9.058;2022-10-13T01:11:19;9.90;99.90
7411;DHT22;3747;48.628;9.058;2022-10-13T01:13:52;10.00;99.90
7411;DHT22;3747;48.628;9.058;2022-10-13T01:16:28;10.00;99.90
7411;DHT22;3747;48.628;9.058;2022-10-13T01:19:06;10.00;99.90
7411;DHT22;3747;48.628;9.058;2022-10-13T01:21:39;10.00;99.90
7411;DHT22;3747;48.628;9.058;2022-10-13T01:24:31;10.10;99.90
7411;DHT22;3747;48.628;9.058;2022-10-13T01:27:10;10.20;99.90
7411;DHT22;3747;48.628;9.058;2022-10-13T01:30:05;10.30;99.90
7411;DHT22;3747;48.628;9.058;2022-10-13T01:35:30;10.40;99.90
7411;DHT22;3747;48.628;9.058;2022-10-13T01:38:04;10.50;99.90
7411;DHT22;3747;48.628;9.058;2022-10-13T01:40:37;10.50;99.90
7411;DHT22;3747;48.628;9.058;2022-10-13T01:43:09;10.50;99.90
7411;DHT22;3747;48.628;9.058;2022-10-13T01:45:39;10.50;99.90
7411;DHT22;3747;48.628;9.058;2022-10-13T01:48:08;10.50;99.90
7411;DHT22;3747;48.628;9.058;2022-10-13T01:50:36;10.50;99.90
7411;DHT22;3747;48.628;9.058;2022-10-13T01:53:04;10.50;99.90
7411;DHT22;3747;48.628;9.058;2022-10-13T01:55:31;10.60;99.90
7411;DHT22;3747;48.628;9.058;2022-10-13T01:57:58;10.60;99.90
7411;DHT22;3747;48.628;9.058;2022-10-13T02:00:25;10.60;99.90
7411;DHT22;3747;48.628;9.058;2022-10-13T02:03:02;10.70;99.90
7411;DHT22;3747;48.628;9.058;2022-10-13T02:05:37;10.60;99.90
7411;DHT22;3747;48.628;9.058;2022-10-13T02:08:11;10.50;99.90
7411;DHT22;3747;48.628;9.058;2022-10-13T02:10:45;10.50;99.90
7411;DHT22;3747;48.628;9.058;2022-10-13T02:13:14;10.50;99.90
7411;DHT22;3747;48.628;9.058;2022-10-13T02:15:44;10.40;99.90
7411;DHT22;3747;48.628;9.058;2022-10-13T02:18:17;10.40;99.90
7411;DHT22;3747;48.628;9.058;2022-10-13T02:20:44;10.40;99.90
7411;DHT22;3747;48.628;9.058;2022-10-13T02:23:13;10.40;99.90
7411;DHT22;3747;48.628;9.058;2022-10-13T02:25:41;10.40;99.90
7411;DHT22;3747;48.628;9.058;2022-10-13T02:28:08;10.40;99.90
7411;DHT22;3747;48.628;9.058;2022-10-13T02:30:38;10.40;99.90
7411;DHT22;3747;48.628;9.058;2022-10-13T02:33:06;10.40;99.90
7411;DHT22;3747;48.628;9.058;2022-10-13T02:35:34;10.50;99.90
7411;DHT22;3747;48.628;9.058;2022-10-13T02:38:01;10.50;99.90
7411;DHT22;3747;48.628;9.058;2022-10-13T02:40:28;10.50;99.90
7411;DHT22;3747;48.628;9.058;2022-10-13T02:42:55;10.60;99.90
7411;DHT22;3747;48.628;9.058;2022-10-13T02:45:22;10.60;99.90
7411;DHT22;3747;48.628;9.058;2022-10-13T02:47:49;10.60;99.90
7411;DHT22;3747;48.628;9.058;2022-10-13T02:50:15;10.60;99.90
7411;DHT22;3747;48.628;9.058;2022-10-13T02:52:44;10.60;99.90
7411;DHT22;3747;48.628;9.058;2022-10-13T02:55:10;10.60;99.90
7411;DHT22;3747;48.628;9.058;2022-10-13T02:57:37;10.70;99.90
7411;DHT22;3747;48.628;9.058;2022-10-13T03:00:05;10.60;99.90
7411;DHT22;3747;48.628;9.058;2022-10-13T03:02:33;10.70;99.90
7411;DHT22;3747;48.628;9.058;2022-10-13T03:05:00;10.70;99.90
7411;DHT22;3747;48.628;9.058;2022-10-13T03:07:26;10.70;99.90
7411;DHT22;3747;48.628;9.058;2022-10-13T03:09:54;10.70;99.90
7411;DHT22;3747;48.628;9.058;2022-10-13T03:12:21;10.70;99.90
7411;DHT22;3747;48.628;9.058;2022-10-13T03:14:48;10.70;99.90
7411;DHT22;3747;48.628;9.058;2022-10-13T03:17:15;10.70;99.90
7411;DHT22;3747;48.628;9.058;2022-10-13T03:19:41;10.80;99.90
7411;DHT22;3747;48.628;9.058;2022-10-13T03:22:08;10.80;99.90
7411;DHT22;3747;48.628;9.058;2022-10-13T03:24:38;10.90;99.90
7411;DHT22;3747;48.628;9.058;2022-10-13T03:27:07;10.80;99.90
7411;DHT22;3747;48.628;9.058;2022-10-13T03:29:33;10.90;99.90
7411;DHT22;3747;48.628;9.058;2022-10-13T03:32:00;10.90;99.90
7411;DHT22;3747;48.628;9.058;2022-10-13T03:34:27;10.90;99.90
7411;DHT22;3747;48.628;9.058;2022-10-13T03:36:54;10.80;99.90
7411;DHT22;3747;48.628;9.058;2022-10-13T03:39:20;10.80;99.90
7411;DHT22;3747;48.628;9.058;2022-10-13T03:41:47;10.70;99.90
7411;DHT22;3747;48.628;9.058;2022-10-13T03:44:15;10.60;99.90
7411;DHT22;3747;48.628;9.058;2022-10-13T03:46:42;10.50;99.90
7411;DHT22;3747;48.628;9.058;2022-10-13T03:49:10;10.40;99.90
7411;DHT22;3747;48.628;9.058;2022-10-13T03:51:37;10.30;99.90
7411;DHT22;3747;48.628;9.058;2022-10-13T03:54:04;10.20;99.90
7411;DHT22;3747;48.628;9.058;2022-10-13T03:56:31;10.10;99.90
7411;DHT22;3747;48.628;9.058;2022-10-13T03:58:59;10.10;99.90
7411;DHT22;3747;48.628;9.058;2022-10-13T04:01:28;10.10;99.90
7411;DHT22;3747;48.628;9.058;2022-10-13T04:03:56;10.10;99.90
7411;DHT22;3747;48.628;9.058;2022-10-13T04:06:24;10.00;99.90
7411;DHT22;3747;48.628;9.058;2022-10-13T04:08:51;10.00;99.90
7411;DHT22;3747;48.628;9.058;2022-10-13T04:11:19;10.00;99.90
7411;DHT22;3747;48.628;9.058;2022-10-13T04:13:46;9.90;99.90
7411;DHT22;3747;48.628;9.058;2022-10-13T04:16:15;9.80;99.90
7411;DHT22;3747;48.628;9.058;2022-10-13T04:18:44;9.70;99.90
7411;DHT22;3747;48.628;9.058;2022-10-13T04:21:13;9.50;99.90
7411;DHT22;3747;48.628;9.058;2022-10-13T04:23:40;9.50;99.90
7411;DHT22;3747;48.628;9.058;2022-10-13T04:26:12;9.50;99.90
7411;DHT22;3747;48.628;9.058;2022-10-13T04:28:39;9.60;99.90
7411;DHT22;3747;48.628;9.058;2022-10-13T04:31:06;9.60;99.90
7411;DHT22;3747;48.628;9.058;2022-10-13T04:33:33;9.50;99.90
7411;DHT22;3747;48.628;9.058;2022-10-13T04:36:03;9.60;99.90
7411;DHT22;3747;48.628;9.058;2022-10-13T04:38:31;9.50;99.90
7411;DHT22;3747;48.628;9.058;2022-10-13T04:40:57;9.60;99.90
7411;DHT22;3747;48.628;9.058;2022-10-13T04:43:24;9.60;99.90
7411;DHT22;3747;48.628;9.058;2022-10-13T04:45:51;9.50;99.90
7411;DHT22;3747;48.628;9.058;2022-10-13T04:48:17;9.50;99.90
7411;DHT22;3747;48.628;9.058;2022-10-13T04:50:44;9.50;99.90
7411;DHT22;3747;48.628;9.058;2022-10-13T04:53:12;9.40;99.90
7411;DHT22;3747;48.628;9.058;2022-10-13T04:55:39;9.30;99.90
7411;DHT22;3747;48.628;9.058;2022-10-13T04:58:05;9.30;99.90
7411;DHT22;3747;48.628;9.058;2022-10-13T05:00:32;9.10;99.90
7411;DHT22;3747;48.628;9.058;2022-10-13T05:02:59;9.00;99.90
7411;DHT22;3747;48.628;9.058;2022-10-13T05:05:25;8.90;99.90
7411;DHT22;3747;48.628;9.058;2022-10-13T05:07:52;8.80;99.90
7411;DHT22;3747;48.628;9.058;2022-10-13T05:10:20;8.80;99.90
7411;DHT22;3747;48.628;9.058;2022-10-13T05:12:47;8.80;99.90
7411;DHT22;3747;48.628;9.058;2022-10-13T05:15:14;8.70;99.90
7411;DHT22;3747;48.628;9.058;2022-10-13T05:17:40;8.80;99.90
7411;DHT22;3747;48.628;9.058;2022-10-13T05:20:08;8.90;99.90
7411;DHT22;3747;48.628;9.058;2022-10-13T05:22:35;8.80;99.90
7411;DHT22;3747;48.628;9.058;2022-10-13T05:25:03;8.90;99.90
7411;DHT22;3747;48.628;9.058;2022-10-13T05:27:31;8.90;99.90
7411;DHT22;3747;48.628;9.058;2022-10-13T05:29:58;8.90;99.90
7411;DHT22;3747;48.628;9.058;2022-10-13T05:32:24;8.90;99.90
7411;DHT22;3747;48.628;9.058;2022-10-13T05:34:51;8.90;99.90
7411;DHT22;3747;48.628;9.058;2022-10-13T05:37:18;8.80;99.90
7411;DHT22;3747;48.628;9.058;2022-10-13T05:39:47;8.80;99.90
7411;DHT22;3747;48.628;9.058;2022-10-13T05:42:13;8.80;99.90
7411;DHT22;3747;48.628;9.058;2022-10-13T05:44:42;8.90;99.90
7411;DHT22;3747;48.628;9.058;2022-10-13T05:47:08;8.90;99.90
7411;DHT22;3747;48.628;9.058;2022-10-13T05:49:35;9.00;99.90
7411;DHT22;3747;48.628;9.058;2022-10-13T05:52:06;9.00;99.90
7411;DHT22;3747;48.628;9.058;2022-10-13T05:54:36;9.00;99.90
7411;DHT22;3747;48.628;9.058;2022-10-13T05:57:07;8.90;99.90
7411;DHT22;3747;48.628;9.058;2022-10-13T05:59:38;9.00;99.90
7411;DHT22;3747;48.628;9.058;2022-10-13T06:02:11;9.10;99.90
7411;DHT22;3747;48.628;9.058;2022-10-13T06:04:42;9.20;99.90
7411;DHT22;3747;48.628;9.058;2022-10-13T06:07:11;9.20;99.90
7411;DHT22;3747;48.628;9.058;2022-10-13T06:09:39;9.30;99.90
7411;DHT22;3747;48.628;9.058;2022-10-13T06:12:08;9.40;99.90
7411;DHT22;3747;48.628;9.058;2022-10-13T06:14:35;9.40;99.90
7411;DHT22;3747;48.628;9.058;2022-10-13T06:17:01;9.50;99.90
7411;DHT22;3747;48.628;9.058;2022-10-13T06:19:30;9.60;99.90
7411;DHT22;3747;48.628;9.058;2022-10-13T06:21:57;9.70;99.90
7411;DHT22;3747;48.628;9.058;2022-10-13T06:24:24;9.70;99.90
7411;DHT22;3747;48.628;9.058;2022-10-13T06:26:51;9.80;99.90
7411;DHT22;3747;48.628;9.058;2022-10-13T06:29:18;9.90;99.90
7411;DHT22;3747;48.628;9.058;2022-10-13T06:31:44;9.90;99.90
7411;DHT22;3747;48.628;9.058;2022-10-13T06:34:11;10.00;99.90
7411;DHT22;3747;48.628;9.058;2022-10-13T06:36:39;10.00;99.90
7411;DHT22;3747;48.628;9.058;2022-10-13T06:39:07;10.00;99.90
7411;DHT22;3747;48.628;9.058;2022-10-13T06:41:35;10.00;99.90
7411;DHT22;3747;48.628;9.058;2022-10-13T06:44:01;10.10;99.90
7411;DHT22;3747;48.628;9.058;2022-10-13T06:46:28;10.20;99.90
7411;DHT22;3747;48.628;9.058;2022-10-13T06:48:55;10.30;99.90
7411;DHT22;3747;48.628;9.058;2022-10-13T06:51:21;10.40;99.90
7411;DHT22;3747;48.628;9.058;2022-10-13T06:53:50;10.40;99.90
7411;DHT22;3747;48.628;9.058;2022-10-13T06:56:16;10.50;99.90
7411;DHT22;3747;48.628;9.058;2022-10-13T06:58:43;10.60;99.90
7411;DHT22;3747;48.628;9.058;2022-10-13T07:01:11;10.60;99.90
7411;DHT22;3747;48.628;9.058;2022-10-13T07:03:39;10.70;99.90
7411;DHT22;3747;48.628;9.058;2022-10-13T07:06:06;10.70;99.90
7411;DHT22;3747;48.628;9.058;2022-10-13T07:08:34;10.80;99.90
7411;DHT22;3747;48.628;9.058;2022-10-13T07:11:07;10.90;99.90
7411;DHT22;3747;48.628;9.058;2022-10-13T07:13:34;10.90;99.90
7411;DHT22;3747;48.628;9.058;2022-10-13T07:16:02;11.00;99.90
7411;DHT22;3747;48.628;9.058;2022-10-13T07:18:28;11.10;99.90
7411;DHT22;3747;48.628;9.058;2022-10-13T07:20:56;11.10;99.90
7411;DHT22;3747;48.628;9.058;2022-10-13T07:23:23;11.10;99.90
7411;DHT22;3747;48.628;9.058;2022-10-13T07:25:50;11.10;99.90
7411;DHT22;3747;48.628;9.058;2022-10-13T07:28:18;11.20;99.90
7411;DHT22;3747;48.628;9.058;2022-10-13T07:30:45;11.40;99.90
7411;DHT22;3747;48.628;9.058;2022-10-13T07:33:12;11.50;99.90
7411;DHT22;3747;48.628;9.058;2022-10-13T07:35:39;11.50;99.90
7411;DHT22;3747;48.628;9.058;2022-10-13T07:38:06;11.80;99.90
7411;DHT22;3747;48.628;9.058;2022-10-13T07:40:33;11.90;99.90
7411;DHT22;3747;48.628;9.058;2022-10-13T07:43:00;12.00;99.90
7411;DHT22;3747;48.628;9.058;2022-10-13T07:45:28;12.00;99.90
7411;DHT22;3747;48.628;9.058;2022-10-13T07:47:55;12.10;99.90
7411;DHT22;3747;48.628;9.058;2022-10-13T07:50:22;12.20;99.90
7411;DHT22;3747;48.628;9.058;2022-10-13T07:52:49;12.40;99.90
7411;DHT22;3747;48.628;9.058;2022-10-13T07:55:15;12.50;99.90
7411;DHT22;3747;48.628;9.058;2022-10-13T07:57:42;12.60;99.90
7411;DHT22;3747;48.628;9.058;2022-10-13T08:00:10;12.80;99.90
7411;DHT22;3747;48.628;9.058;2022-10-13T08:02:38;12.90;99.90
7411;DHT22;3747;48.628;9.058;2022-10-13T08:05:05;13.10;99.90
7411;DHT22;3747;48.628;9.058;2022-10-13T08:07:32;13.40;99.90
7411;DHT22;3747;48.628;9.058;2022-10-13T08:09:59;13.50;99.90
7411;DHT22;3747;48.628;9.058;2022-10-13T08:12:26;13.50;99.90
7411;DHT22;3747;48.628;9.058;2022-10-13T08:14:53;13.30;99.90
7411;DHT22;3747;48.628;9.058;2022-10-13T08:17:19;13.40;99.90
7411;DHT22;3747;48.628;9.058;2022-10-13T08:19:49;13.50;99.90
7411;DHT22;3747;48.628;9.058;2022-10-13T08:22:17;13.80;99.90
7411;DHT22;3747;48.628;9.058;2022-10-13T08:24:47;14.00;99.90
7411;DHT22;3747;48.628;9.058;2022-10-13T08:27:17;13.90;99.90
7411;DHT22;3747;48.628;9.058;2022-10-13T08:29:45;13.90;99.90
7411;DHT22;3747;48.628;9.058;2022-10-13T08:32:11;14.10;99.90
7411;DHT22;3747;48.628;9.058;2022-10-13T08:34:38;14.40;99.90
7411;DHT22;3747;48.628;9.058;2022-10-13T08:37:12;14.80;99.90
7411;DHT22;3747;48.628;9.058;2022-10-13T08:39:39;15.10;99.90
7411;DHT22;3747;48.628;9.058;2022-10-13T08:42:12;15.40;99.90
7411;DHT22;3747;48.628;9.058;2022-10-13T08:44:41;15.60;99.90
7411;DHT22;3747;48.628;9.058;2022-10-13T08:47:17;15.90;99.90
7411;DHT22;3747;48.628;9.058;2022-10-13T08:49:45;15.90;99.90
7411;DHT22;3747;48.628;9.058;2022-10-13T08:52:17;15.90;99.90
7411;DHT22;3747;48.628;9.058;2022-10-13T08:54:44;15.80;99.90
7411;DHT22;3747;48.628;9.058;2022-10-13T08:57:11;15.80;99.90
7411;DHT22;3747;48.628;9.058;2022-10-13T08:59:38;15.70;99.90
7411;DHT22;3747;48.628;9.058;2022-10-13T09:02:10;15.40;99.90
7411;DHT22;3747;48.628;9.058;2022-10-13T09:04:40;15.40;99.90
7411;DHT22;3747;48.628;9.058;2022-10-13T09:07:12;15.60;99.90
7411;DHT22;3747;48.628;9.058;2022-10-13T09:09:41;16.10;99.90
7411;DHT22;3747;48.628;9.058;2022-10-13T09:12:09;16.20;99.90
7411;DHT22;3747;48.628;9.058;2022-10-13T09:14:38;16.10;99.90
7411;DHT22;3747;48.628;9.058;2022-10-13T09:17:14;15.80;99.90
7411;DHT22;3747;48.628;9.058;2022-10-13T09:19:42;15.80;99.90
7411;DHT22;3747;48.628;9.058;2022-10-13T09:22:20;15.90;99.90
7411;DHT22;3747;48.628;9.058;2022-10-13T09:25:15;15.80;99.90
7411;DHT22;3747;48.628;9.058;2022-10-13T09:27:44;15.60;99.90
7411;DHT22;3747;48.628;9.058;2022-10-13T09:30:26;15.40;99.90
7411;DHT22;3747;48.628;9.058;2022-10-13T09:33:04;15.30;99.90
7411;DHT22;3747;48.628;9.058;2022-10-13T09:35:32;15.20;99.90
7411;DHT22;3747;48.628;9.058;2022-10-13T09:38:03;15.20;99.90
7411;DHT22;3747;48.628;9.058;2022-10-13T09:40:32;15.10;99.90
7411;DHT22;3747;48.628;9.058;2022-10-13T09:43:21;15.30;99.90
7411;DHT22;3747;48.628;9.058;2022-10-13T09:45:50;15.40;99.90
7411;DHT22;3747;48.628;9.058;2022-10-13T09:48:22;15.50;99.90
7411;DHT22;3747;48.628;9.058;2022-10-13T09:50:51;15.60;99.90
7411;DHT22;3747;48.628;9.058;2022-10-13T09:53:32;15.50;99.90
7411;DHT22;3747;48.628;9.058;2022-10-13T09:56:20;15.30;99.90
7411;DHT22;3747;48.628;9.058;2022-10-13T09:58:57;15.40;99.90
7411;DHT22;3747;48.628;9.058;2022-10-13T10:01:32;15.50;99.90
7411;DHT22;3747;48.628;9.058;2022-10-13T10:04:03;15.60;99.90
7411;DHT22;3747;48.628;9.058;2022-10-13T10:06:33;15.70;99.90
7411;DHT22;3747;48.628;9.058;2022-10-13T10:09:04;15.80;99.90
7411;DHT22;3747;48.628;9.058;2022-10-13T10:11:40;15.90;99.90
7411;DHT22;3747;48.628;9.058;2022-10-13T10:14:14;15.80;99.90
7411;DHT22;3747;48.628;9.058;2022-10-13T10:16:48;15.80;99.90
7411;DHT22;3747;48.628;9.058;2022-10-13T10:19:43;15.70;99.90
7411;DHT22;3747;48.628;9.058;2022-10-13T10:22:17;15.50;99.90
7411;DHT22;3747;48.628;9.058;2022-10-13T10:24:50;15.60;99.90
7411;DHT22;3747;48.628;9.058;2022-10-13T10:27:26;15.60;99.90
7411;DHT22;3747;48.628;9.058;2022-10-13T10:29:57;15.70;99.90
7411;DHT22;3747;48.628;9.058;2022-10-13T10:32:38;15.80;99.90
7411;DHT22;3747;48.628;9.058;2022-10-13T10:35:11;15.50;99.90
7411;DHT22;3747;48.628;9.058;2022-10-13T10:37:56;15.70;99.90
7411;DHT22;3747;48.628;9.058;2022-10-13T10:40:34;15.60;99.90
7411;DHT22;3747;48.628;9.058;2022-10-13T10:43:28;15.80;99.90
7411;DHT22;3747;48.628;9.058;2022-10-13T10:45:58;15.90;99.90
7411;DHT22;3747;48.628;9.058;2022-10-13T10:48:29;16.20;99.90
7411;DHT22;3747;48.628;9.058;2022-10-13T10:50:56;16.60;99.90
7411;DHT22;3747;48.628;9.058;2022-10-13T10:53:30;16.50;99.90
7411;DHT22;3747;48.628;9.058;2022-10-13T10:56:05;16.60;99.90
7411;DHT22;3747;48.628;9.058;2022-10-13T10:58:40;16.70;99.90
7411;DHT22;3747;48.628;9.058;2022-10-13T11:01:25;16.50;99.90
7411;DHT22;3747;48.628;9.058;2022-10-13T11:03:57;16.40;99.90
7411;DHT22;3747;48.628;9.058;2022-10-13T11:06:32;16.60;99.90
7411;DHT22;3747;48.628;9.058;2022-10-13T11:09:00;16.80;99.90
7411;DHT22;3747;48.628;9.058;2022-10-13T11:11:36;16.90;99.90
7411;DHT22;3747;48.628;9.058;2022-10-13T11:14:25;17.00;99.90
7411;DHT22;3747;48.628;9.058;2022-10-13T11:17:15;17.10;99.90
7411;DHT22;3747;48.628;9.058;2022-10-13T11:19:43;17.00;99.90
7411;DHT22;3747;48.628;9.058;2022-10-13T11:22:15;17.00;99.90
7411;DHT22;3747;48.628;9.058;2022-10-13T11:24:50;17.10;99.90
7411;DHT22;3747;48.628;9.058;2022-10-13T11:27:23;17.10;99.90
7411;DHT22;3747;48.628;9.058;2022-10-13T11:29:55;17.20;99.90
7411;DHT22;3747;48.628;9.058;2022-10-13T11:32:44;17.50;99.90
7411;DHT22;3747;48.628;9.058;2022-10-13T11:35:25;17.60;99.90
7411;DHT22;3747;48.628;9.058;2022-10-13T11:38:11;17.80;99.90
7411;DHT22;3747;48.628;9.058;2022-10-13T11:40:54;17.70;99.90
7411;DHT22;3747;48.628;9.058;2022-10-13T11:43:35;17.70;99.90
7411;DHT22;3747;48.628;9.058;2022-10-13T11:46:19;17.30;99.90
7411;DHT22;3747;48.628;9.058;2022-10-13T11:52:09;17.40;99.90
7411;DHT22;3747;48.628;9.058;2022-10-13T11:54:44;17.50;99.90
7411;DHT22;3747;48.628;9.058;2022-10-13T11:57:20;17.50;99.90
7411;DHT22;3747;48.628;9.058;2022-10-13T11:59:50;17.50;99.90
7411;DHT22;3747;48.628;9.058;2022-10-13T12:02:23;17.40;99.90
7411;DHT22;3747;48.628;9.058;2022-10-13T12:05:03;17.20;99.90
7411;DHT22;3747;48.628;9.058;2022-10-13T12:07:33;17.20;99.90
7411;DHT22;3747;48.628;9.058;2022-10-13T12:10:03;17.40;99.90
7411;DHT22;3747;48.628;9.058;2022-10-13T12:12:31;17.70;99.90
7411;DHT22;3747;48.628;9.058;2022-10-13T12:14:58;17.90;99.90
7411;DHT22;3747;48.628;9.058;2022-10-13T12:17:29;18.30;99.90
7411;DHT22;3747;48.628;9.058;2022-10-13T12:19:58;18.50;99.90
7411;DHT22;3747;48.628;9.058;2022-10-13T12:22:26;18.80;99.90
7411;DHT22;3747;48.628;9.058;2022-10-13T12:24:58;18.80;99.90
7411;DHT22;3747;48.628;9.058;2022-10-13T12:27:25;18.80;99.90
7411;DHT22;3747;48.628;9.058;2022-10-13T12:29:53;18.50;99.90
7411;DHT22;3747;48.628;9.058;2022-10-13T12:32:22;18.10;99.90
7411;DHT22;3747;48.628;9.058;2022-10-13T12:34:50;18.00;99.90
7411;DHT22;3747;48.628;9.058;2022-10-13T12:37:25;18.10;99.90
7411;DHT22;3747;48.628;9.058;2022-10-13T12:39:53;18.10;99.90
7411;DHT22;3747;48.628;9.058;2022-10-13T12:42:28;18.60;99.90
7411;DHT22;3747;48.628;9.058;2022-10-13T12:44:56;19.40;99.90
7411;DHT22;3747;48.628;9.058;2022-10-13T12:47:38;19.80;99.90
7411;DHT22;3747;48.628;9.058;2022-10-13T12:50:37;19.90;99.90
7411;DHT22;3747;48.628;9.058;2022-10-13T12:53:20;19.90;99.90
7411;DHT22;3747;48.628;9.058;2022-10-13T12:55:56;19.60;99.90
7411;DHT22;3747;48.628;9.058;2022-10-13T12:58:27;19.40;99.90
7411;DHT22;3747;48.628;9.058;2022-10-13T13:00:57;19.10;99.90
7411;DHT22;3747;48.628;9.058;2022-10-13T13:03:26;19.10;99.90
7411;DHT22;3747;48.628;9.058;2022-10-13T13:06:10;19.00;99.90
7411;DHT22;3747;48.628;9.058;2022-10-13T13:08:45;19.00;99.90
7411;DHT22;3747;48.628;9.058;2022-10-13T13:11:20;19.00;99.90
7411;DHT22;3747;48.628;9.058;2022-10-13T13:13:47;18.80;99.90
7411;DHT22;3747;48.628;9.058;2022-10-13T13:16:15;18.70;99.90
7411;DHT22;3747;48.628;9.058;2022-10-13T13:18:43;18.30;99.90
7411;DHT22;3747;48.628;9.058;2022-10-13T13:21:14;18.20;99.90
7411;DHT22;3747;48.628;9.058;2022-10-13T13:23:41;17.90;99.90
7411;DHT22;3747;48.628;9.058;2022-10-13T13:26:12;17.90;99.90
7411;DHT22;3747;48.628;9.058;2022-10-13T13:28:42;17.70;99.90
7411;DHT22;3747;48.628;9.058;2022-10-13T13:31:10;17.60;99.90
7411;DHT22;3747;48.628;9.058;2022-10-13T13:33:37;17.30;99.90
7411;DHT22;3747;48.628;9.058;2022-10-13T13:36:04;17.30;99.90
7411;DHT22;3747;48.628;9.058;2022-10-13T13:38:36;17.30;99.90
7411;DHT22;3747;48.628;9.058;2022-10-13T13:41:03;17.40;99.90
7411;DHT22;3747;48.628;9.058;2022-10-13T13:43:30;17.50;99.90
7411;DHT22;3747;48.628;9.058;2022-10-13T13:45:57;17.50;99.90
7411;DHT22;3747;48.628;9.058;2022-10-13T13:48:23;17.50;99.90
7411;DHT22;3747;48.628;9.058;2022-10-13T13:50:51;17.30;99.90
7411;DHT22;3747;48.628;9.058;2022-10-13T13:53:17;17.30;99.90
7411;DHT22;3747;48.628;9.058;2022-10-13T13:55:46;17.40;99.90
7411;DHT22;3747;48.628;9.058;2022-10-13T13:58:13;17.30;99.90
7411;DHT22;3747;48.628;9.058;2022-10-13T14:00:40;17.30;99.90
7411;DHT22;3747;48.628;9.058;2022-10-13T14:03:07;17.50;99.90
7411;DHT22;3747;48.628;9.058;2022-10-13T14:05:37;17.50;99.90
7411;DHT22;3747;48.628;9.058;2022-10-13T14:08:04;17.60;99.90
7411;DHT22;3747;48.628;9.058;2022-10-13T14:10:31;17.50;99.90
7411;DHT22;3747;48.628;9.058;2022-10-13T14:12:59;17.20;99.90
7411;DHT22;3747;48.628;9.058;2022-10-13T14:15:26;17.20;99.90
7411;DHT22;3747;48.628;9.058;2022-10-13T14:17:53;17.00;99.90
7411;DHT22;3747;48.628;9.058;2022-10-13T14:20:20;16.90;99.90
7411;DHT22;3747;48.628;9.058;2022-10-13T14:22:47;16.90;99.90
7411;DHT22;3747;48.628;9.058;2022-10-13T14:25:14;16.90;99.90
7411;DHT22;3747;48.628;9.058;2022-10-13T14:27:41;16.90;99.90
7411;DHT22;3747;48.628;9.058;2022-10-13T14:30:12;16.80;99.90
7411;DHT22;3747;48.628;9.058;2022-10-13T14:32:39;16.70;99.90
7411;DHT22;3747;48.628;9.058;2022-10-13T14:35:06;16.60;99.90
7411;DHT22;3747;48.628;9.058;2022-10-13T14:37:33;16.50;99.90
7411;DHT22;3747;48.628;9.058;2022-10-13T14:40:00;16.50;99.90
7411;DHT22;3747;48.628;9.058;2022-10-13T14:42:27;16.50;99.90
7411;DHT22;3747;48.628;9.058;2022-10-13T14:44:54;16.40;99.90
7411;DHT22;3747;48.628;9.058;2022-10-13T14:47:22;16.40;99.90
7411;DHT22;3747;48.628;9.058;2022-10-13T14:49:49;16.30;99.90
7411;DHT22;3747;48.628;9.058;2022-10-13T14:52:15;16.40;99.90
7411;DHT22;3747;48.628;9.058;2022-10-13T14:54:42;16.30;99.90
7411;DHT22;3747;48.628;9.058;2022-10-13T14:57:09;16.30;99.90
7411;DHT22;3747;48.628;9.058;2022-10-13T14:59:39;16.30;99.90
7411;DHT22;3747;48.628;9.058;2022-10-13T15:02:08;16.20;99.90
7411;DHT22;3747;48.628;9.058;2022-10-13T15:04:36;16.10;99.90
7411;DHT22;3747;48.628;9.058;2022-10-13T15:07:03;16.10;99.90
7411;DHT22;3747;48.628;9.058;2022-10-13T15:09:30;16.10;99.90
7411;DHT22;3747;48.628;9.058;2022-10-13T15:11:57;16.10;99.90
7411;DHT22;3747;48.628;9.058;2022-10-13T15:14:24;16.10;99.90
7411;DHT22;3747;48.628;9.058;2022-10-13T15:16:50;16.00;99.90
7411;DHT22;3747;48.628;9.058;2022-10-13T15:19:18;15.90;99.90
7411;DHT22;3747;48.628;9.058;2022-10-13T15:21:46;15.90;99.90
7411;DHT22;3747;48.628;9.058;2022-10-13T15:24:12;15.80;99.90
7411;DHT22;3747;48.628;9.058;2022-10-13T15:26:39;15.70;99.90
7411;DHT22;3747;48.628;9.058;2022-10-13T15:29:06;15.70;99.90
7411;DHT22;3747;48.628;9.058;2022-10-13T15:31:32;15.70;99.90
7411;DHT22;3747;48.628;9.058;2022-10-13T15:34:00;15.50;99.90
7411;DHT22;3747;48.628;9.058;2022-10-13T15:36:26;15.40;99.90
7411;DHT22;3747;48.628;9.058;2022-10-13T15:38:54;15.40;99.90
7411;DHT22;3747;48.628;9.058;2022-10-13T15:41:21;15.30;99.90
7411;DHT22;3747;48.628;9.058;2022-10-13T15:43:49;15.20;99.90
7411;DHT22;3747;48.628;9.058;2022-10-13T15:46:17;15.20;99.90
7411;DHT22;3747;48.628;9.058;2022-10-13T15:48:48;15.10;99.90
7411;DHT22;3747;48.628;9.058;2022-10-13T15:51:17;15.10;99.90
7411;DHT22;3747;48.628;9.058;2022-10-13T15:53:44;15.00;99.90
7411;DHT22;3747;48.628;9.058;2022-10-13T15:56:13;14.90;99.90
7411;DHT22;3747;48.628;9.058;2022-10-13T15:58:40;14.80;99.90
7411;DHT22;3747;48.628;9.058;2022-10-13T16:01:07;14.70;99.90
7411;DHT22;3747;48.628;9.058;2022-10-13T16:03:34;14.60;99.90
7411;DHT22;3747;48.628;9.058;2022-10-13T16:06:02;14.50;99.90
7411;DHT22;3747;48.628;9.058;2022-10-13T16:08:30;14.30;99.90
7411;DHT22;3747;48.628;9.058;2022-10-13T16:10:57;14.10;99.90
7411;DHT22;3747;48.628;9.058;2022-10-13T16:13:25;14.00;99.90
7411;DHT22;3747;48.628;9.058;2022-10-13T16:15:58;13.70;99.90
7411;DHT22;3747;48.628;9.058;2022-10-13T16:18:28;13.60;99.90
7411;DHT22;3747;48.628;9.058;2022-10-13T16:20:55;13.50;99.90
7411;DHT22;3747;48.628;9.058;2022-10-13T16:23:22;13.40;99.90
7411;DHT22;3747;48.628;9.058;2022-10-13T16:25:48;13.30;99.90
7411;DHT22;3747;48.628;9.058;2022-10-13T16:28:15;13.30;99.90